createdAt,value
2017-12-26T00:00:23.158Z,0
2017-12-26T00:01:03.718Z,0
2017-12-26T00:01:44.328Z,0
2017-12-26T00:02:24.923Z,0
2017-12-26T00:03:05.506Z,0
2017-12-26T00:03:46.132Z,0
2017-12-26T00:04:26.717Z,0
2017-12-26T00:05:07.331Z,0
2017-12-26T00:05:47.950Z,0
2017-12-26T00:06:28.514Z,0
2017-12-26T00:07:09.087Z,0
2017-12-26T00:07:49.716Z,0
2017-12-26T00:08:30.292Z,0
2017-12-26T00:09:10.896Z,0
2017-12-26T00:09:51.472Z,0
2017-12-26T00:10:32.052Z,0
2017-12-26T00:11:12.633Z,0
2017-12-26T00:11:53.214Z,0
2017-12-26T00:12:33.807Z,0
2017-12-26T00:13:14.379Z,0
2017-12-26T00:13:54.972Z,0
2017-12-26T00:14:35.545Z,0
2017-12-26T00:15:16.231Z,0
2017-12-26T00:15:56.804Z,0
2017-12-26T00:16:37.386Z,0
2017-12-26T00:17:18.004Z,0
2017-12-26T00:17:58.609Z,0
2017-12-26T00:18:39.216Z,0
2017-12-26T00:19:19.835Z,0
2017-12-26T00:20:00.410Z,0
2017-12-26T00:20:40.996Z,0
2017-12-26T00:21:21.592Z,0
2017-12-26T00:22:02.167Z,0
2017-12-26T00:22:42.775Z,0
2017-12-26T00:23:23.338Z,0
2017-12-26T00:24:03.897Z,0
2017-12-26T00:24:44.476Z,0
2017-12-26T00:25:25.046Z,0
2017-12-26T00:26:05.633Z,0
2017-12-26T00:26:46.207Z,0
2017-12-26T00:27:26.789Z,0
2017-12-26T00:28:07.384Z,0
2017-12-26T00:28:47.943Z,0
2017-12-26T00:29:28.511Z,0
2017-12-26T00:30:09.078Z,0
2017-12-26T00:30:49.667Z,0
2017-12-26T00:31:30.280Z,0
2017-12-26T00:32:10.846Z,0
2017-12-26T00:32:51.421Z,0
2017-12-26T00:33:31.979Z,0
2017-12-26T00:34:12.548Z,0
2017-12-26T00:34:53.149Z,0
2017-12-26T00:35:33.767Z,0
2017-12-26T00:36:14.391Z,0
2017-12-26T00:36:54.964Z,0
2017-12-26T00:37:35.560Z,0
2017-12-26T00:38:16.192Z,0
2017-12-26T00:38:56.764Z,0
2017-12-26T00:39:37.386Z,0
2017-12-26T00:40:17.962Z,0
2017-12-26T00:40:58.571Z,0
2017-12-26T00:41:39.155Z,0
2017-12-26T00:42:19.776Z,0
2017-12-26T00:43:00.345Z,0
2017-12-26T00:43:40.926Z,0
2017-12-26T00:44:21.524Z,0
2017-12-26T00:45:02.094Z,0
2017-12-26T00:45:42.665Z,0
2017-12-26T00:46:23.255Z,0
2017-12-26T00:47:03.834Z,0
2017-12-26T00:47:44.419Z,0
2017-12-26T00:48:25.004Z,0
2017-12-26T00:49:05.620Z,0
2017-12-26T00:49:46.220Z,0
2017-12-26T00:50:26.805Z,0
2017-12-26T00:51:07.394Z,0
2017-12-26T00:51:48.006Z,0
2017-12-26T00:52:28.658Z,0
2017-12-26T00:53:09.226Z,0
2017-12-26T00:53:49.813Z,0
2017-12-26T00:54:30.411Z,0
2017-12-26T00:55:10.990Z,0
2017-12-26T00:55:51.597Z,0
2017-12-26T00:56:32.188Z,0
2017-12-26T00:57:12.778Z,0
2017-12-26T00:57:53.375Z,0
2017-12-26T00:58:33.975Z,0
2017-12-26T00:59:14.573Z,0
2017-12-26T00:59:55.164Z,0
2017-12-26T01:00:35.715Z,0
2017-12-26T01:01:16.356Z,0
2017-12-26T01:01:56.942Z,0
2017-12-26T01:02:37.514Z,0
2017-12-26T01:03:18.086Z,0
2017-12-26T01:03:58.651Z,0
2017-12-26T01:04:39.233Z,0
2017-12-26T01:05:19.806Z,0
2017-12-26T01:06:00.376Z,0
2017-12-26T01:06:40.970Z,0
2017-12-26T01:07:21.554Z,0
2017-12-26T01:08:02.125Z,0
2017-12-26T01:08:42.741Z,0
2017-12-26T01:09:23.338Z,0
2017-12-26T01:10:03.928Z,0
2017-12-26T01:10:44.505Z,0
2017-12-26T01:11:25.115Z,0
2017-12-26T01:12:05.675Z,0
2017-12-26T01:12:46.238Z,0
2017-12-26T01:13:26.823Z,0
2017-12-26T01:14:07.383Z,0
2017-12-26T01:14:47.994Z,0
2017-12-26T01:15:28.568Z,0
2017-12-26T01:16:09.134Z,0
2017-12-26T01:16:49.724Z,0
2017-12-26T01:17:30.319Z,0
2017-12-26T01:18:10.923Z,0
2017-12-26T01:18:51.496Z,0
2017-12-26T01:19:32.084Z,0
2017-12-26T01:20:12.667Z,0
2017-12-26T01:20:53.244Z,0
2017-12-26T01:21:33.816Z,0
2017-12-26T01:22:14.374Z,0
2017-12-26T01:22:54.950Z,0
2017-12-26T01:23:35.536Z,0
2017-12-26T01:24:16.101Z,0
2017-12-26T01:24:56.694Z,0
2017-12-26T01:25:37.286Z,0
2017-12-26T01:26:17.863Z,0
2017-12-26T01:26:58.422Z,0
2017-12-26T01:27:38.993Z,0
2017-12-26T01:28:19.587Z,0
2017-12-26T01:29:00.150Z,0
2017-12-26T01:29:40.735Z,0
2017-12-26T01:30:21.297Z,0
2017-12-26T01:31:01.881Z,0
2017-12-26T01:31:42.474Z,0
2017-12-26T01:32:23.061Z,0
2017-12-26T01:33:03.625Z,0
2017-12-26T01:33:44.231Z,0
2017-12-26T01:34:24.832Z,0
2017-12-26T01:35:05.393Z,0
2017-12-26T01:35:46.012Z,0
2017-12-26T01:36:26.576Z,0
2017-12-26T01:37:07.140Z,0
2017-12-26T01:37:47.706Z,0
2017-12-26T01:38:28.279Z,0
2017-12-26T01:39:08.868Z,0
2017-12-26T01:39:49.471Z,0
2017-12-26T01:40:30.049Z,0
2017-12-26T01:41:10.644Z,0
2017-12-26T01:41:51.238Z,0
2017-12-26T01:42:31.815Z,0
2017-12-26T01:43:12.376Z,0
2017-12-26T01:43:52.928Z,0
2017-12-26T01:44:33.481Z,0
2017-12-26T01:45:14.070Z,0
2017-12-26T01:45:54.698Z,0
2017-12-26T01:46:35.319Z,0
2017-12-26T01:47:15.893Z,0
2017-12-26T01:47:56.485Z,0
2017-12-26T01:48:43.769Z,0
2017-12-26T01:49:24.356Z,0
2017-12-26T01:50:04.946Z,0
2017-12-26T01:50:45.526Z,0
2017-12-26T01:51:26.092Z,0
2017-12-26T01:52:06.671Z,0
2017-12-26T01:52:47.257Z,0
2017-12-26T01:53:27.875Z,0
2017-12-26T01:54:08.484Z,0
2017-12-26T01:54:49.064Z,0
2017-12-26T01:55:29.659Z,0
2017-12-26T01:56:10.240Z,0
2017-12-26T01:56:50.821Z,0
2017-12-26T01:57:31.372Z,0
2017-12-26T01:58:11.941Z,0
2017-12-26T01:58:52.515Z,0
2017-12-26T01:59:33.086Z,0
2017-12-26T02:00:13.654Z,0
2017-12-26T02:00:54.238Z,0
2017-12-26T02:01:34.839Z,0
2017-12-26T02:02:15.421Z,0
2017-12-26T02:02:56.027Z,0
2017-12-26T02:03:36.664Z,0
2017-12-26T02:04:17.287Z,0
2017-12-26T02:04:57.821Z,0
2017-12-26T02:05:38.401Z,0
2017-12-26T02:06:19.027Z,0
2017-12-26T02:06:59.627Z,0
2017-12-26T02:07:40.227Z,0
2017-12-26T02:08:20.801Z,0
2017-12-26T02:09:01.396Z,0
2017-12-26T02:09:41.983Z,0
2017-12-26T02:10:22.547Z,0
2017-12-26T02:11:03.097Z,0
2017-12-26T02:11:43.696Z,0
2017-12-26T02:12:24.236Z,0
2017-12-26T02:13:04.804Z,0
2017-12-26T02:13:45.399Z,0
2017-12-26T02:14:25.972Z,0
2017-12-26T02:15:06.537Z,0
2017-12-26T02:15:47.109Z,0
2017-12-26T02:16:27.722Z,0
2017-12-26T02:17:08.278Z,0
2017-12-26T02:17:48.834Z,0
2017-12-26T02:18:29.385Z,0
2017-12-26T02:19:09.992Z,0
2017-12-26T02:19:50.600Z,0
2017-12-26T02:20:31.217Z,0
2017-12-26T02:21:11.809Z,0
2017-12-26T02:21:52.421Z,0
2017-12-26T02:22:33.037Z,0
2017-12-26T02:23:13.618Z,0
2017-12-26T02:23:54.205Z,0
2017-12-26T02:24:34.805Z,0
2017-12-26T02:25:15.402Z,0
2017-12-26T02:25:55.937Z,0
2017-12-26T02:26:36.493Z,0
2017-12-26T02:27:17.072Z,0
2017-12-26T02:27:57.664Z,0
2017-12-26T02:28:38.262Z,0
2017-12-26T02:29:18.820Z,0
2017-12-26T02:29:59.401Z,0
2017-12-26T02:30:39.975Z,0
2017-12-26T02:31:20.539Z,0
2017-12-26T02:32:01.131Z,0
2017-12-26T02:32:41.754Z,0
2017-12-26T02:33:22.338Z,0
2017-12-26T02:34:02.959Z,0
2017-12-26T02:34:43.543Z,0
2017-12-26T02:35:24.161Z,0
2017-12-26T02:36:04.712Z,0
2017-12-26T02:36:45.274Z,0
2017-12-26T02:37:25.833Z,0
2017-12-26T02:38:06.401Z,0
2017-12-26T02:38:46.959Z,0
2017-12-26T02:39:27.550Z,0
2017-12-26T02:40:08.123Z,0
2017-12-26T02:40:48.706Z,0
2017-12-26T02:41:29.318Z,0
2017-12-26T02:42:09.886Z,0
2017-12-26T02:42:50.457Z,0
2017-12-26T02:43:31.082Z,0
2017-12-26T02:44:11.646Z,0
2017-12-26T02:44:52.198Z,0
2017-12-26T02:45:32.765Z,0
2017-12-26T02:46:13.359Z,0
2017-12-26T02:46:53.944Z,0
2017-12-26T02:47:34.561Z,0
2017-12-26T02:48:15.130Z,0
2017-12-26T02:48:55.727Z,0
2017-12-26T02:49:36.317Z,0
2017-12-26T02:50:16.883Z,0
2017-12-26T02:50:57.442Z,0
2017-12-26T02:51:38.015Z,0
2017-12-26T02:52:18.581Z,0
2017-12-26T02:52:59.133Z,0
2017-12-26T02:53:39.703Z,0
2017-12-26T02:54:20.290Z,0
2017-12-26T02:55:00.892Z,0
2017-12-26T02:55:41.513Z,0
2017-12-26T02:56:22.094Z,0
2017-12-26T02:57:02.668Z,0
2017-12-26T02:57:43.263Z,0
2017-12-26T02:58:23.845Z,0
2017-12-26T02:59:04.413Z,0
2017-12-26T02:59:45.003Z,0
2017-12-26T03:00:25.597Z,0
2017-12-26T03:01:06.183Z,0
2017-12-26T03:01:46.737Z,0
2017-12-26T03:02:27.321Z,0
2017-12-26T03:03:07.889Z,0
2017-12-26T03:03:48.489Z,0
2017-12-26T03:04:29.099Z,0
2017-12-26T03:05:09.698Z,0
2017-12-26T03:05:50.287Z,0
2017-12-26T03:06:30.854Z,0
2017-12-26T03:07:11.480Z,0
2017-12-26T03:07:52.024Z,0
2017-12-26T03:08:32.620Z,0
2017-12-26T03:09:13.184Z,0
2017-12-26T03:09:53.760Z,0
2017-12-26T03:10:34.349Z,0
2017-12-26T03:11:14.980Z,0
2017-12-26T03:11:55.550Z,0
2017-12-26T03:12:36.134Z,0
2017-12-26T03:13:16.726Z,0
2017-12-26T03:13:57.312Z,0
2017-12-26T03:14:37.910Z,0
2017-12-26T03:15:18.514Z,0
2017-12-26T03:15:59.121Z,0
2017-12-26T03:16:39.722Z,0
2017-12-26T03:17:20.300Z,0
2017-12-26T03:18:00.903Z,0
2017-12-26T03:18:41.502Z,0
2017-12-26T03:19:22.093Z,0
2017-12-26T03:20:02.701Z,0
2017-12-26T03:20:43.260Z,0
2017-12-26T03:21:23.868Z,0
2017-12-26T03:22:04.474Z,0
2017-12-26T03:22:44.992Z,0
2017-12-26T03:23:25.618Z,0
2017-12-26T03:24:06.197Z,0
2017-12-26T03:24:46.772Z,0
2017-12-26T03:25:27.344Z,0
2017-12-26T03:26:07.952Z,0
2017-12-26T03:26:48.539Z,0
2017-12-26T03:27:29.135Z,0
2017-12-26T03:28:09.692Z,0
2017-12-26T03:28:50.282Z,0
2017-12-26T03:29:30.908Z,0
2017-12-26T03:30:11.507Z,0
2017-12-26T03:30:52.073Z,0
2017-12-26T03:31:32.650Z,0
2017-12-26T03:32:13.227Z,0
2017-12-26T03:32:53.808Z,0
2017-12-26T03:33:34.388Z,0
2017-12-26T03:34:14.963Z,0
2017-12-26T03:34:55.548Z,0
2017-12-26T03:35:36.131Z,0
2017-12-26T03:36:16.713Z,0
2017-12-26T03:36:57.300Z,0
2017-12-26T03:37:37.898Z,0
2017-12-26T03:38:18.469Z,0
2017-12-26T03:38:59.039Z,0
2017-12-26T03:39:39.620Z,0
2017-12-26T03:40:20.207Z,0
2017-12-26T03:41:00.808Z,0
2017-12-26T03:41:41.410Z,0
2017-12-26T03:42:22.014Z,0
2017-12-26T03:43:02.581Z,0
2017-12-26T03:43:43.150Z,0
2017-12-26T03:44:23.749Z,0
2017-12-26T03:45:04.332Z,0
2017-12-26T03:45:44.906Z,0
2017-12-26T03:46:25.491Z,0
2017-12-26T03:47:06.066Z,0
2017-12-26T03:47:46.702Z,0
2017-12-26T03:48:27.267Z,0
2017-12-26T03:49:07.853Z,0
2017-12-26T03:49:48.460Z,0
2017-12-26T03:50:29.021Z,0
2017-12-26T03:51:09.625Z,0
2017-12-26T03:51:50.187Z,0
2017-12-26T03:52:30.741Z,0
2017-12-26T03:53:11.323Z,0
2017-12-26T03:53:51.900Z,0
2017-12-26T03:54:32.464Z,0
2017-12-26T03:55:13.063Z,0
2017-12-26T03:55:53.663Z,0
2017-12-26T03:56:34.274Z,0
2017-12-26T03:57:14.910Z,0
2017-12-26T03:57:55.481Z,0
2017-12-26T03:58:36.070Z,0
2017-12-26T03:59:16.647Z,0
2017-12-26T03:59:57.232Z,0
2017-12-26T04:00:37.810Z,0
2017-12-26T04:01:18.377Z,0
2017-12-26T04:01:58.957Z,0
2017-12-26T04:02:39.523Z,0
2017-12-26T04:03:26.032Z,0
2017-12-26T04:04:06.619Z,0
2017-12-26T04:06:52.519Z,0
2017-12-26T04:07:33.093Z,0
2017-12-26T04:08:13.649Z,0
2017-12-26T04:08:54.240Z,0
2017-12-26T04:09:34.792Z,0
2017-12-26T04:10:15.400Z,0
2017-12-26T04:10:55.959Z,0
2017-12-26T04:11:36.519Z,0
2017-12-26T04:12:17.071Z,0
2017-12-26T04:12:57.681Z,0
2017-12-26T04:13:38.264Z,0
2017-12-26T04:14:18.823Z,0
2017-12-26T04:14:59.415Z,0
2017-12-26T04:15:39.991Z,0
2017-12-26T04:16:20.552Z,0
2017-12-26T04:17:01.155Z,0
2017-12-26T04:17:41.747Z,0
2017-12-26T04:18:22.323Z,0
2017-12-26T04:19:02.880Z,0
2017-12-26T04:19:43.438Z,0
2017-12-26T04:20:24.039Z,0
2017-12-26T04:21:04.604Z,0
2017-12-26T04:21:45.186Z,0
2017-12-26T04:22:25.794Z,0
2017-12-26T04:23:06.368Z,0
2017-12-26T04:23:46.938Z,0
2017-12-26T04:24:27.535Z,0
2017-12-26T04:25:08.098Z,0
2017-12-26T04:25:48.745Z,0
2017-12-26T04:26:29.333Z,0
2017-12-26T04:27:09.893Z,0
2017-12-26T04:27:50.467Z,0
2017-12-26T04:28:31.041Z,0
2017-12-26T04:29:11.607Z,0
2017-12-26T04:29:52.201Z,0
2017-12-26T04:30:32.802Z,0
2017-12-26T04:31:13.389Z,0
2017-12-26T04:31:53.989Z,0
2017-12-26T04:32:34.560Z,0
2017-12-26T04:33:15.156Z,0
2017-12-26T04:33:55.798Z,0
2017-12-26T04:34:36.427Z,0
2017-12-26T04:35:17.010Z,0
2017-12-26T04:35:57.620Z,0
2017-12-26T04:36:38.193Z,0
2017-12-26T04:37:18.765Z,0
2017-12-26T04:37:59.355Z,0
2017-12-26T04:38:39.950Z,0
2017-12-26T04:39:20.535Z,0
2017-12-26T04:40:01.091Z,0
2017-12-26T04:40:41.665Z,0
2017-12-26T04:41:22.252Z,0
2017-12-26T04:42:02.833Z,0
2017-12-26T04:42:43.397Z,0
2017-12-26T04:43:23.964Z,0
2017-12-26T04:44:04.541Z,0
2017-12-26T04:44:45.106Z,0
2017-12-26T04:45:25.666Z,0
2017-12-26T04:46:06.232Z,0
2017-12-26T04:46:46.794Z,0
2017-12-26T04:47:27.348Z,0
2017-12-26T04:48:07.922Z,0
2017-12-26T04:48:48.518Z,0
2017-12-26T04:49:29.108Z,0
2017-12-26T04:50:09.724Z,0
2017-12-26T04:50:50.316Z,0
2017-12-26T04:51:30.935Z,0
2017-12-26T04:52:11.502Z,0
2017-12-26T04:52:52.069Z,0
2017-12-26T04:53:32.662Z,0
2017-12-26T04:54:13.218Z,0
2017-12-26T04:54:53.812Z,0
2017-12-26T04:55:34.388Z,0
2017-12-26T04:56:14.950Z,0
2017-12-26T04:56:55.535Z,0
2017-12-26T04:57:36.109Z,0
2017-12-26T04:58:16.682Z,0
2017-12-26T04:58:57.271Z,0
2017-12-26T04:59:37.832Z,0
2017-12-26T05:00:18.404Z,0
2017-12-26T05:00:58.976Z,0
2017-12-26T05:01:39.574Z,0
2017-12-26T05:02:20.142Z,0
2017-12-26T05:03:00.710Z,0
2017-12-26T05:03:41.278Z,0
2017-12-26T05:04:21.841Z,0
2017-12-26T05:05:02.421Z,0
2017-12-26T05:05:42.986Z,0
2017-12-26T05:06:23.593Z,0
2017-12-26T05:07:04.151Z,0
2017-12-26T05:07:44.730Z,0
2017-12-26T05:08:25.293Z,0
2017-12-26T05:09:05.904Z,0
2017-12-26T05:09:46.539Z,0
2017-12-26T05:10:27.119Z,0
2017-12-26T05:11:07.703Z,0
2017-12-26T05:11:48.271Z,0
2017-12-26T05:12:28.863Z,0
2017-12-26T05:13:09.462Z,0
2017-12-26T05:13:50.083Z,0
2017-12-26T05:14:30.663Z,0
2017-12-26T05:15:11.255Z,0
2017-12-26T05:15:51.845Z,0
2017-12-26T05:16:32.446Z,0
2017-12-26T05:17:13.021Z,0
2017-12-26T05:17:53.578Z,0
2017-12-26T05:18:34.154Z,0
2017-12-26T05:19:14.753Z,0
2017-12-26T05:19:55.336Z,0
2017-12-26T05:20:35.893Z,0
2017-12-26T05:21:16.496Z,0
2017-12-26T05:21:57.052Z,0
2017-12-26T05:22:37.635Z,0
2017-12-26T05:23:18.221Z,0
2017-12-26T05:23:58.841Z,0
2017-12-26T05:24:39.400Z,0
2017-12-26T05:25:19.969Z,0
2017-12-26T05:26:00.554Z,0
2017-12-26T05:26:41.118Z,0
2017-12-26T05:27:21.711Z,0
2017-12-26T05:28:02.306Z,0
2017-12-26T05:28:42.870Z,0
2017-12-26T05:29:23.443Z,0
2017-12-26T05:30:04.018Z,0
2017-12-26T05:30:44.588Z,0
2017-12-26T05:31:25.186Z,0
2017-12-26T05:32:05.751Z,0
2017-12-26T05:32:46.323Z,0
2017-12-26T05:33:26.911Z,0
2017-12-26T05:34:07.488Z,0
2017-12-26T05:34:48.058Z,0
2017-12-26T05:35:28.659Z,0
2017-12-26T05:36:09.238Z,0
2017-12-26T05:36:49.810Z,0
2017-12-26T05:37:30.450Z,0
2017-12-26T05:38:11.038Z,0
2017-12-26T05:38:51.642Z,0
2017-12-26T05:39:32.220Z,0
2017-12-26T05:40:12.804Z,0
2017-12-26T05:40:53.379Z,0
2017-12-26T05:41:33.980Z,0
2017-12-26T05:42:14.565Z,0
2017-12-26T05:42:55.166Z,0
2017-12-26T05:43:35.738Z,0
2017-12-26T05:44:16.310Z,0
2017-12-26T05:44:56.933Z,0
2017-12-26T05:45:37.536Z,0
2017-12-26T05:46:18.104Z,0
2017-12-26T05:46:58.681Z,0
2017-12-26T05:47:39.257Z,0
2017-12-26T05:48:19.856Z,0
2017-12-26T05:49:00.445Z,0
2017-12-26T05:49:41.038Z,0
2017-12-26T05:50:21.626Z,0
2017-12-26T05:51:02.196Z,0
2017-12-26T05:51:42.762Z,0
2017-12-26T05:52:23.336Z,0
2017-12-26T05:53:03.894Z,0
2017-12-26T05:53:44.465Z,0
2017-12-26T05:54:25.029Z,0
2017-12-26T05:55:05.588Z,0
2017-12-26T05:55:46.188Z,0
2017-12-26T05:56:26.785Z,0
2017-12-26T05:57:07.379Z,0
2017-12-26T05:57:47.955Z,0
2017-12-26T05:58:28.543Z,0
2017-12-26T05:59:09.139Z,0
2017-12-26T05:59:49.750Z,0
2017-12-26T06:00:30.362Z,0
2017-12-26T06:01:10.956Z,0
2017-12-26T06:01:51.523Z,0
2017-12-26T06:02:32.081Z,0
2017-12-26T06:03:12.662Z,0
2017-12-26T06:03:53.289Z,0
2017-12-26T06:04:33.853Z,0
2017-12-26T06:05:14.425Z,0
2017-12-26T06:05:55.013Z,0
2017-12-26T06:06:35.594Z,0
2017-12-26T06:07:16.193Z,0
2017-12-26T06:07:56.813Z,0
2017-12-26T06:08:37.391Z,0
2017-12-26T06:09:17.969Z,0
2017-12-26T06:09:58.549Z,0
2017-12-26T06:10:39.141Z,0
2017-12-26T06:11:19.756Z,0
2017-12-26T06:12:00.341Z,0
2017-12-26T06:12:40.904Z,0
2017-12-26T06:13:21.471Z,0
2017-12-26T06:14:02.034Z,0
2017-12-26T06:14:42.617Z,0
2017-12-26T06:15:23.202Z,0
2017-12-26T06:16:03.814Z,0
2017-12-26T06:16:44.405Z,0
2017-12-26T06:17:24.942Z,0
2017-12-26T06:18:05.511Z,0
2017-12-26T06:18:46.091Z,0
2017-12-26T06:19:26.655Z,0
2017-12-26T06:20:07.249Z,0
2017-12-26T06:20:47.821Z,0
2017-12-26T06:21:28.373Z,0
2017-12-26T06:22:08.963Z,0
2017-12-26T06:22:49.599Z,0
2017-12-26T06:23:30.167Z,0
2017-12-26T06:24:10.761Z,0
2017-12-26T06:24:51.353Z,0
2017-12-26T06:25:31.946Z,0
2017-12-26T06:26:12.518Z,0
2017-12-26T06:26:53.096Z,0
2017-12-26T06:27:33.670Z,0
2017-12-26T06:28:14.217Z,0
2017-12-26T06:28:54.832Z,0
2017-12-26T06:29:35.442Z,0
2017-12-26T06:30:16.039Z,0
2017-12-26T06:30:56.629Z,0
2017-12-26T06:31:37.246Z,0
2017-12-26T06:32:17.806Z,0
2017-12-26T06:32:58.384Z,0
2017-12-26T06:33:38.933Z,0
2017-12-26T06:34:19.508Z,0
2017-12-26T06:35:00.054Z,0
2017-12-26T06:35:40.645Z,0
2017-12-26T06:36:21.221Z,0
2017-12-26T06:37:01.791Z,0
2017-12-26T06:37:42.400Z,0
2017-12-26T06:38:22.973Z,0
2017-12-26T06:39:03.564Z,0
2017-12-26T06:39:44.147Z,0
2017-12-26T06:40:24.745Z,0
2017-12-26T06:41:05.349Z,0
2017-12-26T06:41:45.941Z,0
2017-12-26T06:42:26.515Z,0
2017-12-26T06:43:07.137Z,0
2017-12-26T06:43:47.761Z,0
2017-12-26T06:44:28.354Z,0
2017-12-26T06:45:08.977Z,0
2017-12-26T06:45:49.561Z,0
2017-12-26T06:46:30.128Z,0
2017-12-26T06:47:10.700Z,0
2017-12-26T06:47:51.267Z,0
2017-12-26T06:48:31.843Z,0
2017-12-26T06:49:12.417Z,0
2017-12-26T06:49:52.988Z,0
2017-12-26T06:50:33.539Z,0
2017-12-26T06:51:14.105Z,0
2017-12-26T06:51:54.693Z,0
2017-12-26T06:52:35.263Z,0
2017-12-26T06:53:15.824Z,0
2017-12-26T06:53:56.386Z,0
2017-12-26T06:54:36.949Z,0
2017-12-26T06:55:17.535Z,0
2017-12-26T06:55:58.108Z,0
2017-12-26T06:56:38.723Z,0
2017-12-26T06:57:19.312Z,0
2017-12-26T06:57:59.926Z,0
2017-12-26T06:58:40.516Z,0
2017-12-26T06:59:21.087Z,0
2017-12-26T07:00:01.655Z,0
2017-12-26T07:00:42.218Z,0
2017-12-26T07:01:22.800Z,0
2017-12-26T07:02:03.362Z,0
2017-12-26T07:02:43.947Z,0
2017-12-26T07:03:24.542Z,0
2017-12-26T07:04:05.161Z,0
2017-12-26T07:04:45.763Z,0
2017-12-26T07:05:26.450Z,0
2017-12-26T07:06:06.972Z,0
2017-12-26T07:06:47.541Z,0
2017-12-26T07:07:28.118Z,0
2017-12-26T07:08:08.698Z,0
2017-12-26T07:08:49.283Z,0
2017-12-26T07:09:29.879Z,0
2017-12-26T07:10:10.444Z,0
2017-12-26T07:10:51.010Z,0
2017-12-26T07:11:31.620Z,0
2017-12-26T07:12:12.201Z,0
2017-12-26T07:12:52.764Z,0
2017-12-26T07:13:33.328Z,0
2017-12-26T07:14:13.899Z,0
2017-12-26T07:14:54.513Z,0
2017-12-26T07:15:35.123Z,0
2017-12-26T07:16:15.699Z,0
2017-12-26T07:16:56.269Z,5
2017-12-26T07:17:36.880Z,5
2017-12-26T07:18:17.488Z,5
2017-12-26T07:18:58.090Z,5
2017-12-26T07:19:38.666Z,5
2017-12-26T07:20:19.246Z,5
2017-12-26T07:21:00.590Z,5
2017-12-26T07:21:41.171Z,5
2017-12-26T07:22:21.763Z,5
2017-12-26T07:23:02.349Z,5
2017-12-26T07:23:42.940Z,5
2017-12-26T07:24:23.554Z,5
2017-12-26T07:25:04.135Z,5
2017-12-26T07:25:44.753Z,5
2017-12-26T07:26:25.340Z,5
2017-12-26T07:27:05.929Z,10
2017-12-26T07:27:46.537Z,10
2017-12-26T07:28:27.139Z,10
2017-12-26T07:29:07.727Z,10
2017-12-26T07:29:48.328Z,10
2017-12-26T07:30:28.938Z,10
2017-12-26T07:31:09.571Z,10
2017-12-26T07:31:50.141Z,10
2017-12-26T07:32:30.760Z,10
2017-12-26T07:33:11.341Z,15
2017-12-26T07:33:51.918Z,15
2017-12-26T07:34:32.492Z,15
2017-12-26T07:35:13.075Z,15
2017-12-26T07:35:53.714Z,15
2017-12-26T07:36:34.297Z,15
2017-12-26T07:37:14.887Z,15
2017-12-26T07:37:55.483Z,15
2017-12-26T07:38:36.044Z,15
2017-12-26T07:39:16.623Z,15
2017-12-26T07:39:57.218Z,15
2017-12-26T07:40:37.851Z,15
2017-12-26T07:41:18.420Z,15
2017-12-26T07:41:59.015Z,15
2017-12-26T07:42:39.608Z,15
2017-12-26T07:43:20.177Z,15
2017-12-26T07:44:00.770Z,15
2017-12-26T07:44:41.337Z,15
2017-12-26T07:45:21.971Z,15
2017-12-26T07:46:02.584Z,15
2017-12-26T07:46:43.172Z,15
2017-12-26T07:47:23.784Z,15
2017-12-26T07:48:04.350Z,15
2017-12-26T07:48:44.929Z,15
2017-12-26T07:49:25.509Z,15
2017-12-26T07:50:06.111Z,20
2017-12-26T07:50:46.683Z,20
2017-12-26T07:51:27.261Z,20
2017-12-26T07:52:07.861Z,20
2017-12-26T07:52:48.476Z,20
2017-12-26T07:53:29.066Z,20
2017-12-26T07:54:09.699Z,20
2017-12-26T07:54:50.265Z,20
2017-12-26T07:55:30.839Z,20
2017-12-26T07:56:11.435Z,25
2017-12-26T07:56:52.059Z,25
2017-12-26T07:57:32.616Z,25
2017-12-26T07:58:13.183Z,25
2017-12-26T07:58:53.786Z,25
2017-12-26T07:59:34.360Z,25
2017-12-26T08:00:14.952Z,25
2017-12-26T08:00:55.594Z,25
2017-12-26T08:01:36.207Z,25
2017-12-26T08:02:16.778Z,20
2017-12-26T08:02:57.371Z,20
2017-12-26T08:03:37.939Z,25
2017-12-26T08:04:18.505Z,25
2017-12-26T08:04:59.145Z,25
2017-12-26T08:05:39.745Z,25
2017-12-26T08:06:20.310Z,25
2017-12-26T08:07:00.889Z,25
2017-12-26T08:07:41.462Z,25
2017-12-26T08:08:22.032Z,25
2017-12-26T08:09:02.613Z,25
2017-12-26T08:09:43.178Z,25
2017-12-26T08:10:23.789Z,25
2017-12-26T08:11:04.376Z,30
2017-12-26T08:11:44.958Z,30
2017-12-26T08:12:25.563Z,30
2017-12-26T08:13:06.140Z,30
2017-12-26T08:13:46.727Z,30
2017-12-26T08:14:27.318Z,30
2017-12-26T08:15:07.890Z,35
2017-12-26T08:15:48.478Z,35
2017-12-26T08:16:29.093Z,35
2017-12-26T08:17:09.679Z,35
2017-12-26T08:17:50.254Z,35
2017-12-26T08:18:30.862Z,35
2017-12-26T08:19:11.448Z,35
2017-12-26T08:19:52.053Z,35
2017-12-26T08:20:32.615Z,35
2017-12-26T08:21:13.229Z,35
2017-12-26T08:21:53.841Z,35
2017-12-26T08:22:34.437Z,35
2017-12-26T08:23:15.023Z,35
2017-12-26T08:23:55.605Z,35
2017-12-26T08:24:36.181Z,35
2017-12-26T08:25:16.763Z,35
2017-12-26T08:25:57.324Z,35
2017-12-26T08:26:37.921Z,35
2017-12-26T08:27:18.491Z,35
2017-12-26T08:27:59.093Z,35
2017-12-26T08:28:39.678Z,35
2017-12-26T08:29:20.261Z,35
2017-12-26T08:30:00.823Z,35
2017-12-26T08:30:41.400Z,35
2017-12-26T08:31:22.018Z,35
2017-12-26T08:32:02.601Z,35
2017-12-26T08:32:43.208Z,35
2017-12-26T08:33:23.807Z,35
2017-12-26T08:34:04.412Z,35
2017-12-26T08:34:45.032Z,35
2017-12-26T08:35:25.616Z,35
2017-12-26T08:36:06.180Z,35
2017-12-26T08:36:46.772Z,35
2017-12-26T08:37:27.367Z,35
2017-12-26T08:38:07.937Z,40
2017-12-26T08:38:48.506Z,40
2017-12-26T08:39:29.072Z,40
2017-12-26T08:40:09.669Z,40
2017-12-26T08:40:50.266Z,40
2017-12-26T08:41:30.849Z,40
2017-12-26T08:42:11.420Z,40
2017-12-26T08:42:52.021Z,40
2017-12-26T08:43:32.592Z,40
2017-12-26T08:44:13.168Z,40
2017-12-26T08:44:53.738Z,35
2017-12-26T08:45:34.304Z,35
2017-12-26T08:46:14.878Z,35
2017-12-26T08:46:55.483Z,35
2017-12-26T08:47:36.072Z,40
2017-12-26T08:48:16.675Z,40
2017-12-26T08:48:57.240Z,40
2017-12-26T08:49:37.922Z,40
2017-12-26T08:50:18.528Z,40
2017-12-26T08:50:59.117Z,45
2017-12-26T08:51:39.739Z,45
2017-12-26T08:52:20.316Z,45
2017-12-26T08:53:00.919Z,50
2017-12-26T08:53:41.544Z,50
2017-12-26T08:54:22.128Z,50
2017-12-26T08:55:02.734Z,50
2017-12-26T08:55:43.316Z,50
2017-12-26T08:56:23.882Z,50
2017-12-26T08:57:04.501Z,50
2017-12-26T08:57:45.077Z,50
2017-12-26T08:58:25.640Z,50
2017-12-26T08:59:06.234Z,50
2017-12-26T08:59:46.857Z,50
2017-12-26T09:00:27.437Z,55
2017-12-26T09:01:08.016Z,60
2017-12-26T09:01:48.595Z,65
2017-12-26T09:02:29.219Z,70
2017-12-26T09:03:09.844Z,70
2017-12-26T09:03:50.419Z,70
2017-12-26T09:04:30.998Z,65
2017-12-26T09:05:11.586Z,65
2017-12-26T09:05:52.157Z,65
2017-12-26T09:06:32.729Z,65
2017-12-26T09:07:13.346Z,75
2017-12-26T09:07:53.903Z,80
2017-12-26T09:08:34.478Z,75
2017-12-26T09:09:15.081Z,70
2017-12-26T09:09:55.644Z,65
2017-12-26T09:10:36.245Z,65
2017-12-26T09:11:16.828Z,70
2017-12-26T09:11:57.421Z,75
2017-12-26T09:12:38.052Z,80
2017-12-26T09:13:18.623Z,80
2017-12-26T09:13:59.206Z,85
2017-12-26T09:14:39.791Z,85
2017-12-26T09:15:20.404Z,80
2017-12-26T09:16:01.001Z,80
2017-12-26T09:16:41.610Z,80
2017-12-26T09:17:22.211Z,75
2017-12-26T09:18:02.842Z,75
2017-12-26T09:18:43.417Z,80
2017-12-26T09:19:23.982Z,80
2017-12-26T09:20:04.567Z,75
2017-12-26T09:20:45.166Z,95
2017-12-26T09:21:25.754Z,105
2017-12-26T09:22:06.320Z,115
2017-12-26T09:22:46.879Z,165
2017-12-26T09:23:27.453Z,250
2017-12-26T09:24:08.077Z,285
2017-12-26T09:24:48.664Z,245
2017-12-26T09:25:29.232Z,240
2017-12-26T09:26:09.795Z,270
2017-12-26T09:26:50.365Z,210
2017-12-26T09:27:30.941Z,160
2017-12-26T09:28:11.545Z,115
2017-12-26T09:28:52.111Z,140
2017-12-26T09:29:32.684Z,145
2017-12-26T09:30:13.252Z,180
2017-12-26T09:30:53.902Z,210
2017-12-26T09:31:34.492Z,195
2017-12-26T09:32:15.107Z,180
2017-12-26T09:32:55.673Z,215
2017-12-26T09:33:36.255Z,185
2017-12-26T09:34:16.855Z,235
2017-12-26T09:34:57.419Z,290
2017-12-26T09:35:38.002Z,290
2017-12-26T09:36:18.591Z,245
2017-12-26T09:36:59.177Z,240
2017-12-26T09:37:39.806Z,310
2017-12-26T09:38:20.386Z,270
2017-12-26T09:39:01.016Z,290
2017-12-26T09:39:41.607Z,190
2017-12-26T09:40:22.202Z,220
2017-12-26T09:41:02.787Z,160
2017-12-26T09:41:43.385Z,175
2017-12-26T09:42:23.995Z,235
2017-12-26T09:43:04.604Z,220
2017-12-26T09:43:45.200Z,180
2017-12-26T09:44:25.814Z,225
2017-12-26T09:45:06.381Z,200
2017-12-26T09:45:46.975Z,285
2017-12-26T09:46:27.575Z,270
2017-12-26T09:47:08.129Z,235
2017-12-26T09:47:48.742Z,220
2017-12-26T09:48:29.334Z,275
2017-12-26T09:49:09.943Z,290
2017-12-26T09:49:50.515Z,275
2017-12-26T09:50:31.091Z,280
2017-12-26T09:51:11.742Z,310
2017-12-26T09:51:52.321Z,335
2017-12-26T09:52:32.915Z,355
2017-12-26T09:53:13.497Z,365
2017-12-26T09:53:54.059Z,410
2017-12-26T09:54:34.639Z,430
2017-12-26T09:55:15.230Z,435
2017-12-26T09:55:55.805Z,420